This is the latest recevied weather packets stored in our database for station/object KD0RII. If no packets are shown the sender has not sent any weather packets the latest 10 day(s).
| Time | Temp. | Humidity | Pressure | Rain* | Wind** | Luminosity | Snow |
|---|---|---|---|---|---|---|---|
| 1777494428 | 17.78° C | 48% | 1020.7 hPa | 0 mm | - | 506 W/m² | - |
| 1777494124 | 17.78° C | 48% | 1020.6 hPa | 0 mm | - | 500 W/m² | - |
| 1777493821 | 17.78° C | 52% | 1020.8 hPa | 0 mm | - | 421 W/m² | - |
| 1777493519 | 17.22° C | 49% | 1020.8 hPa | 0 mm | - | 448 W/m² | - |
| 1777493216 | 17.22° C | 49% | 1020.8 hPa | 0 mm | - | 535 W/m² | - |
| 1777492912 | 17.78° C | 48% | 1021 hPa | 0 mm | - | 588 W/m² | - |
| 1777492609 | 17.78° C | 49% | 1021 hPa | 0 mm | - | 628 W/m² | - |
| 1777492304 | 17.78° C | 48% | 1020.9 hPa | 0 mm | - | 574 W/m² | - |
| 1777492002 | 17.78° C | 49% | 1021 hPa | 0 mm | - | 783 W/m² | - |
| 1777491698 | 17.78° C | 51% | 1021.1 hPa | 0 mm | - | 819 W/m² | - |
| 1777491396 | 17.22° C | 50% | 1021.1 hPa | 0 mm | - | 764 W/m² | - |
| 1777491093 | 17.78° C | 46% | 1021.1 hPa | 0 mm | - | 661 W/m² | - |
| 1777490788 | 17.22° C | 50% | 1021.3 hPa | 0 mm | - | 689 W/m² | - |
| 1777490485 | 17.22° C | 52% | 1021.4 hPa | 0 mm | - | 839 W/m² | - |
| 1777490181 | 17.22° C | 51% | 1021.5 hPa | 0 mm | - | 619 W/m² | - |
| 1777489879 | 17.22° C | 52% | 1021.4 hPa | 0 mm | - | 838 W/m² | - |
| 1777489576 | 17.22° C | 50% | 1021.3 hPa | 0 mm | - | 748 W/m² | - |
| 1777489272 | 17.22° C | 50% | 1021.3 hPa | 0 mm | - | 836 W/m² | - |
| 1777488970 | 16.67° C | 54% | 1021.5 hPa | 0 mm | - | 863 W/m² | - |
| 1777488666 | 17.78° C | 49% | 1021.4 hPa | 0 mm | - | 744 W/m² | - |
| 1777488364 | 18.33° C | 50% | 1021.6 hPa | 0 mm | - | 880 W/m² | - |
| 1777488063 | 17.22° C | 55% | 1021.5 hPa | 0 mm | - | 884 W/m² | - |
| 1777487760 | 17.22° C | 52% | 1021.5 hPa | 0 mm | - | 925 W/m² | - |
| 1777487457 | 16.67° C | 57% | 1021.7 hPa | 0 mm | - | 841 W/m² | - |
| 1777487155 | 17.22° C | 54% | 1021.7 hPa | 0 mm | - | 626 W/m² | - |
* Rain latest hour (hover to see other rain measurements)
** Current wind speed in m/s (hover to see current wind gust speed)